Time;durP1;ratioP1;P1;durP2;ratioP2;P2;SDS_P1;SDS_P2;PMS_P1;PMS_P2;Temp;Humidity;BMP_temperature;BMP_pressure;BME280_temperature;BME280_humidity;BME280_pressure;Samples;Min_cycle;Max_cycle;Signal;HPM_P1;HPM_P2
2022/05/23 00:01:50;;;;;;;2.43;1.70;;;18.20;53.10;;;20.99;41.76;101075.16;5135527;27;20270;-61
2022/05/23 00:04:17;;;;;;;1.97;1.40;;;18.20;53.10;;;20.99;41.85;101078.63;5146242;27;20202;-62
2022/05/23 00:08:16;;;;;;;2.30;1.60;;;18.20;53.30;;;20.87;41.95;101075.97;5135760;27;20238;-61
2022/05/23 00:13:16;;;;;;;2.10;1.40;;;18.20;53.10;;;20.97;41.59;101086.06;5172871;27;20376;-59
2022/05/23 00:15:43;;;;;;;2.47;1.77;;;18.20;53.20;;;20.98;41.60;101082.38;5116436;27;20577;-60
2022/05/23 00:18:09;;;;;;;2.43;1.70;;;18.30;53.20;;;21.00;41.88;101074.09;5145223;27;20202;-61
2022/05/23 00:20:36;;;;;;;3.27;1.57;;;18.20;53.30;;;20.98;41.84;101068.97;5143934;27;20202;-61
2022/05/23 00:23:03;;;;;;;4.20;2.03;;;18.20;53.30;;;21.01;41.57;101067.69;5133251;27;20199;-60
2022/05/23 00:25:29;;;;;;;4.47;1.77;;;18.30;53.30;;;20.98;41.64;101066.31;5089500;28;20215;-60
2022/05/23 00:27:56;;;;;;;3.37;1.70;;;18.30;53.70;;;20.96;42.06;101068.41;5091901;28;20243;-61
2022/05/23 00:30:27;;;;;;;3.37;1.80;;;18.20;53.20;;;20.92;42.13;101065.38;5048185;28;20202;-61
2022/05/23 00:38:15;;;;;;;4.53;1.33;;;18.20;53.40;;;20.79;41.94;101049.56;5154667;27;20654;-62
2022/05/23 00:43:13;;;;;;;6.13;1.70;;;18.10;53.60;;;20.74;42.56;101056.66;5131855;28;20292;-62
2022/05/23 00:43:39;;;;;;;2.57;1.90;;;18.10;53.70;;;20.70;42.67;101044.81;5058118;28;20210;-62
2022/05/23 00:46:06;;;;;;;3.30;1.67;;;18.10;53.70;;;20.68;42.28;101036.22;5036161;28;20225;-63
2022/05/23 00:48:33;;;;;;;3.57;1.87;;;18.00;53.90;;;20.65;42.44;101032.13;5036169;28;20194;-62
2022/05/23 00:51:07;;;;;;;2.80;1.80;;;18.00;54.00;;;20.64;42.45;101033.16;4999606;28;20279;-61
2022/05/23 00:53:39;;;;;;;4.63;1.50;;;18.00;54.10;;;20.63;42.64;101025.38;4929179;28;20203;-61
2022/05/23 00:56:08;;;;;;;2.53;1.60;;;18.00;54.80;;;20.59;42.93;101016.19;4879278;29;20628;-61
2022/05/23 00:58:49;;;;;;;3.07;1.97;;;17.90;54.10;;;20.52;42.97;101013.63;4638288;30;20341;-65
2022/05/23 01:03:54;;;;;;;2.17;1.43;;;17.90;54.10;;;20.47;42.97;101004.66;5172372;27;20629;-60
2022/05/23 01:06:22;;;;;;;2.63;1.70;;;17.80;54.40;;;20.42;42.96;100999.22;5133879;27;20222;-59
2022/05/23 01:08:55;;;;;;;2.97;1.50;;;17.80;54.50;;;20.38;42.84;101006.88;5130499;28;20508;-62
2022/05/23 01:11:23;;;;;;;3.47;1.63;;;17.80;54.50;;;20.35;43.04;101003.88;5148375;27;20194;-61
2022/05/23 01:13:53;;;;;;;3.93;1.90;;;17.70;54.60;;;20.31;43.10;101011.53;5141312;27;20203;-62
2022/05/23 01:16:21;;;;;;;2.20;1.80;;;17.70;54.70;;;20.27;43.39;101004.19;5092818;28;20223;-61
2022/05/23 01:18:48;;;;;;;5.53;2.87;;;17.60;54.80;;;20.22;43.50;100995.03;5126012;28;20203;-61
2022/05/23 01:21:28;;;;;;;4.57;2.07;;;17.60;55.00;;;20.16;43.75;100990.56;5102583;28;20195;-61
2022/05/23 01:24:11;;;;;;;3.97;1.83;;;17.50;55.20;;;20.14;44.02;100984.63;4952027;28;20206;-62
2022/05/23 01:29:15;;;;;;;5.27;1.97;;;17.50;55.30;;;20.16;43.47;100973.69;5172701;27;20630;-59
2022/05/23 01:31:43;;;;;;;2.20;1.77;;;17.50;55.50;;;20.11;43.50;100973.59;5146714;27;20251;-61
2022/05/23 01:34:09;;;;;;;2.47;1.60;;;17.40;55.30;;;20.07;43.54;100959.88;5130762;28;20609;-60
2022/05/23 01:36:36;;;;;;;5.63;1.83;;;17.40;55.20;;;20.01;43.47;100960.00;5129572;28;20675;-59
2022/05/23 01:39:03;;;;;;;2.50;1.57;;;17.40;55.30;;;19.97;43.46;100964.16;5085354;28;20201;-61
2022/05/23 01:41:30;;;;;;;3.00;1.70;;;17.30;55.30;;;19.90;43.83;100958.91;5025742;28;20207;-61
2022/05/23 01:43:56;;;;;;;2.73;1.97;;;17.30;55.30;;;19.86;43.74;100957.75;4969624;28;20203;-62
2022/05/23 01:46:25;;;;;;;3.07;1.87;;;17.20;55.40;;;19.83;44.05;100947.53;4920453;29;20221;-60
2022/05/23 01:48:51;;;;;;;4.03;2.10;;;17.20;55.60;;;19.84;44.16;100943.00;4968466;28;20305;-63
2022/05/23 01:51:17;;;;;;;2.60;2.00;;;17.20;55.80;;;19.84;43.95;100941.16;4938332;28;20337;-62
2022/05/23 01:53:57;;;;;;;3.80;2.00;;;17.10;55.70;;;19.85;44.18;100933.94;5172121;27;20637;-62
2022/05/23 01:56:23;;;;;;;2.87;1.70;;;17.10;55.80;;;19.85;44.14;100940.09;5133191;27;20215;-61
2022/05/23 02:01:40;;;;;;;2.57;1.80;;;17.10;55.70;;;19.80;44.06;100931.94;5096191;28;20201;-62
2022/05/23 02:04:07;;;;;;;2.30;1.80;;;17.10;55.80;;;19.80;44.13;100921.25;5074174;28;20650;-61
2022/05/23 02:06:34;;;;;;;3.03;1.93;;;17.10;55.90;;;19.82;44.31;100913.84;5073473;28;20583;-61
2022/05/23 02:09:01;;;;;;;3.50;1.90;;;17.10;55.90;;;19.81;43.92;100912.22;5084469;28;20544;-62
2022/05/23 02:11:28;;;;;;;2.33;1.90;;;17.20;55.70;;;19.79;43.95;100903.63;5083895;28;20188;-61
2022/05/23 02:13:54;;;;;;;3.93;2.47;;;17.10;55.80;;;19.80;43.85;100905.22;5073284;28;20207;-61
2022/05/23 02:16:20;;;;;;;2.93;1.93;;;17.10;55.70;;;19.81;43.79;100906.03;5022071;28;20259;-61
2022/05/23 02:19:00;;;;;;;3.03;1.97;;;17.10;55.80;;;19.82;43.81;100903.16;5153554;27;20646;-60
2022/05/23 02:21:26;;;;;;;3.60;2.00;;;17.10;55.60;;;19.81;43.55;100912.22;5144142;27;20250;-60
2022/05/23 02:23:53;;;;;;;4.67;1.70;;;17.10;55.50;;;19.80;43.88;100910.56;5150249;27;20199;-60
2022/05/23 02:26:20;;;;;;;2.47;1.70;;;17.10;55.40;;;19.79;43.52;100903.63;5132706;27;20664;-62
2022/05/23 02:28:46;;;;;;;1.90;1.80;;;17.10;55.90;;;19.78;43.63;100901.19;5108095;28;20208;-58
2022/05/23 02:31:13;;;;;;;6.43;2.13;;;17.10;55.40;;;19.79;43.77;100903.63;5026724;28;20199;-61
2022/05/23 02:33:41;;;;;;;3.50;2.10;;;17.10;55.50;;;19.79;43.43;100900.94;5018582;28;20221;-59
2022/05/23 02:36:09;;;;;;;4.13;1.93;;;17.10;55.30;;;19.82;43.60;100902.34;5027385;28;20246;-57
2022/05/23 02:38:35;;;;;;;3.50;1.77;;;17.10;55.40;;;19.84;43.78;100906.41;4994544;28;20282;-63
2022/05/23 02:43:43;;;;;;;2.47;1.70;;;17.10;55.20;;;19.85;43.24;100897.34;5171820;27;20633;-62
2022/05/23 02:46:09;;;;;;;1.87;1.63;;;17.10;55.10;;;19.85;43.31;100891.19;5114684;28;20613;-62
2022/05/23 02:48:36;;;;;;;2.53;1.80;;;17.10;55.70;;;19.84;43.35;100890.38;5113623;28;20270;-63
2022/05/23 02:51:03;;;;;;;3.67;1.83;;;17.10;54.90;;;19.83;43.23;100888.75;5127405;27;20256;-59
2022/05/23 02:53:30;;;;;;;4.33;3.00;;;17.10;54.80;;;19.83;43.32;100891.41;5116271;28;20192;-61
2022/05/23 02:55:56;;;;;;;2.90;1.93;;;17.10;54.80;;;19.83;43.33;100885.25;5116782;28;20218;-60
2022/05/23 02:58:23;;;;;;;2.70;2.50;;;17.10;54.90;;;19.84;43.38;100879.69;5126285;28;20278;-62
2022/05/23 03:00:51;;;;;;;3.40;2.23;;;17.10;55.00;;;19.87;43.04;100873.88;5118829;28;20196;-62
2022/05/23 03:03:18;;;;;;;3.33;2.13;;;17.10;54.80;;;19.86;42.72;100866.91;5100830;28;20219;-61
2022/05/23 03:08:24;;;;;;;4.10;2.30;;;17.10;54.60;;;19.88;42.95;100870.16;5150659;27;20648;-61
2022/05/23 03:10:55;;;;;;;3.57;2.20;;;17.10;54.50;;;19.88;42.74;100859.47;5111723;28;20266;-60
2022/05/23 03:13:22;;;;;;;3.70;2.10;;;17.10;55.10;;;19.88;42.53;100864.81;5124072;28;20192;-60
2022/05/23 03:15:49;;;;;;;4.10;2.53;;;17.10;54.10;;;19.82;42.22;100860.41;5085975;28;20212;-60
2022/05/23 03:18:20;;;;;;;3.43;1.93;;;17.10;53.70;;;19.78;42.52;100869.13;5015309;28;20211;-61
2022/05/23 03:20:46;;;;;;;3.33;2.40;;;17.10;53.90;;;19.75;42.35;100859.72;5027406;28;20603;-63
2022/05/23 03:27:14;;;;;;;10.83;5.00;;;17.10;53.60;;;19.42;42.66;100854.88;4959761;28;20377;-62
2022/05/23 03:32:19;;;;;;;2.53;2.17;;;17.00;53.70;;;19.39;42.82;100843.88;5163467;27;20634;-62
2022/05/23 03:34:45;;;;;;;2.97;1.90;;;16.90;53.80;;;19.36;43.04;100844.31;5147054;27;20211;-61
2022/05/23 03:37:12;;;;;;;3.63;2.50;;;16.90;53.90;;;19.31;43.13;100831.63;5129419;28;20202;-61
2022/05/23 03:39:39;;;;;;;2.63;2.27;;;16.80;54.00;;;19.28;43.24;100831.28;5146617;27;20249;-62
2022/05/23 03:42:07;;;;;;;3.73;2.47;;;16.80;54.20;;;19.19;43.43;100822.78;5114923;27;20228;-62
2022/05/23 03:44:35;;;;;;;5.07;2.30;;;16.70;54.30;;;19.18;43.57;100820.34;5087980;28;20632;-62
2022/05/23 03:47:03;;;;;;;5.00;2.17;;;16.70;54.30;;;19.19;43.60;100832.63;5058909;28;20202;-59
2022/05/23 03:51:01;;;;;;;3.87;2.30;;;16.70;54.50;;;18.98;43.92;100830.50;5036680;28;20229;-61
2022/05/23 03:56:07;;;;;;;4.30;2.50;;;16.70;54.50;;;18.99;43.92;100832.13;5156480;27;20635;-60
2022/05/23 03:58:34;;;;;;;3.20;2.10;;;16.60;54.60;;;19.03;43.95;100822.63;5122234;28;20712;-61
2022/05/23 04:01:14;;;;;;;3.30;2.23;;;16.60;54.70;;;19.00;43.95;100828.41;5088905;28;20196;-60
2022/05/23 04:03:41;;;;;;;5.50;2.27;;;16.60;54.70;;;19.03;44.18;100833.28;5076296;28;20280;-60
2022/05/23 04:06:09;;;;;;;3.40;2.30;;;16.60;54.90;;;18.99;44.17;100821.47;5072000;28;20228;-60
2022/05/23 04:08:36;;;;;;;2.90;2.00;;;16.60;54.90;;;18.97;43.94;100823.53;5038381;28;20199;-60
2022/05/23 04:11:03;;;;;;;3.07;2.10;;;16.60;55.00;;;18.93;44.29;100818.66;5010999;28;20207;-62
2022/05/23 04:14:00;;;;;;;2.47;2.17;;;16.50;54.90;;;18.88;44.35;100821.19;5041304;28;20209;-61
2022/05/23 04:16:29;;;;;;;2.73;2.27;;;16.50;55.00;;;18.98;44.42;100825.16;4856547;29;20233;-61
2022/05/23 04:21:18;;;;;;;5.43;2.50;;;16.50;55.10;;;18.98;44.36;100804.63;5171511;27;20391;-59
2022/05/23 04:23:46;;;;;;;3.10;2.33;;;16.60;55.20;;;18.98;44.47;100801.16;5121842;27;20253;-59
2022/05/23 04:26:13;;;;;;;2.57;2.33;;;16.60;55.30;;;18.98;44.47;100798.47;5107897;28;20246;-61
2022/05/23 04:28:40;;;;;;;2.93;2.30;;;16.60;55.30;;;19.03;44.40;100788.75;5117768;28;20206;-61
2022/05/23 04:31:07;;;;;;;5.77;2.80;;;16.60;55.40;;;19.09;44.36;100789.72;5090688;28;20208;-65
2022/05/23 04:36:20;;;;;;;4.50;2.73;;;16.60;55.50;;;19.23;44.13;100780.44;4950793;28;20517;-61
2022/05/23 04:38:48;;;;;;;3.90;2.87;;;16.70;55.50;;;19.30;43.71;100775.81;4926961;28;20228;-62
2022/05/23 04:41:29;;;;;;;8.33;2.80;;;16.70;55.30;;;19.33;44.01;100770.81;4920778;28;20239;-62
2022/05/23 04:46:30;;;;;;;2.83;2.57;;;16.70;55.80;;;19.49;43.45;100774.69;5194366;27;20886;-60
2022/05/23 04:51:42;;;;;;;7.93;2.67;;;16.90;55.00;;;19.67;43.43;100755.06;5124215;27;20590;-62
2022/05/23 04:54:09;;;;;;;4.00;2.43;;;17.00;54.90;;;19.69;43.03;100743.09;5128629;28;20195;-61
2022/05/23 04:56:39;;;;;;;7.80;2.80;;;17.10;54.70;;;19.77;42.96;100729.41;5098477;28;20213;-62
2022/05/23 04:59:06;;;;;;;3.10;2.80;;;17.10;54.40;;;19.83;43.05;100733.78;5093578;28;20356;-61
2022/05/23 05:01:33;;;;;;;5.37;2.63;;;17.20;54.40;;;19.90;43.06;100728.31;5136017;27;20201;-60
2022/05/23 05:04:00;;;;;;;5.20;2.53;;;17.30;54.50;;;19.97;42.75;100712.94;4983085;28;20216;-60
2022/05/23 05:06:26;;;;;;;5.43;2.90;;;17.30;54.20;;;20.04;42.36;100719.78;4618907;30;20547;-61
2022/05/23 05:11:26;;;;;;;5.63;3.13;;;17.40;54.00;;;20.16;42.32;100715.22;5213734;27;20908;-61
2022/05/23 05:13:53;;;;;;;2.80;2.50;;;17.50;53.70;;;20.21;41.99;100709.16;5153929;27;20210;-60
2022/05/23 05:16:23;;;;;;;7.03;3.10;;;17.50;53.60;;;20.27;42.56;100718.94;5136434;27;20559;-63
2022/05/23 05:18:52;;;;;;;4.57;2.47;;;17.60;53.80;;;20.36;42.22;100711.34;5156639;27;20257;-62
2022/05/23 05:21:18;;;;;;;4.77;2.70;;;17.60;53.60;;;20.42;41.80;100703.16;5148928;27;20531;-62
2022/05/23 05:23:45;;;;;;;5.10;2.20;;;17.70;53.60;;;20.50;41.87;100696.63;5120232;28;20248;-63
2022/05/23 05:26:11;;;;;;;3.50;2.20;;;17.70;53.50;;;20.56;41.73;100690.34;5153319;27;20231;-62
2022/05/23 05:31:27;;;;;;;5.43;2.63;;;17.80;53.70;;;20.76;41.25;100680.78;5169202;27;20630;-60
2022/05/23 05:34:01;;;;;;;4.53;3.00;;;17.90;53.40;;;20.87;41.13;100677.22;5131811;27;20633;-62
2022/05/23 05:36:36;;;;;;;6.27;2.47;;;18.00;53.30;;;20.93;40.99;100678.09;5120186;27;20213;-60
2022/05/23 05:39:06;;;;;;;6.17;2.53;;;18.10;53.20;;;20.92;40.77;100673.81;5143675;27;20195;-62
2022/05/23 05:41:41;;;;;;;8.07;2.60;;;18.10;52.70;;;20.91;40.90;100666.84;5082141;28;20200;-60
2022/05/23 05:44:13;;;;;;;7.00;2.70;;;18.20;52.80;;;21.00;41.52;100664.56;5029829;28;20199;-62
2022/05/23 05:46:52;;;;;;;8.00;2.40;;;18.30;52.90;;;21.08;41.20;100659.66;4917044;29;20297;-61
2022/05/23 05:50:53;;;;;;;5.03;2.47;;;18.30;52.70;;;20.90;40.82;100657.19;4783606;29;20227;-61
2022/05/23 05:56:00;;;;;;;4.30;2.70;;;18.40;52.20;;;21.06;41.01;100653.69;5155621;27;20635;-62
2022/05/23 05:58:29;;;;;;;5.47;2.43;;;18.50;52.30;;;21.05;40.64;100657.47;5110702;28;20235;-61
2022/05/23 06:00:56;;;;;;;6.30;2.60;;;18.50;52.00;;;20.99;40.77;100657.59;5129323;28;20248;-62
2022/05/23 06:03:22;;;;;;;6.30;2.30;;;18.50;51.90;;;21.01;40.97;100656.31;5128272;28;20234;-61
2022/05/23 06:13:52;;;;;;;3.97;2.40;;;18.70;52.20;;;21.30;40.57;100644.41;4812652;29;20670;-62
2022/05/23 06:18:57;;;;;;;3.67;2.90;;;18.70;51.70;;;21.47;40.25;100634.47;5156256;27;20655;-62
2022/05/23 06:21:26;;;;;;;5.47;2.97;;;18.90;51.90;;;21.54;40.42;100639.66;5106965;27;20196;-59
2022/05/23 06:23:53;;;;;;;4.27;2.73;;;18.90;51.80;;;21.59;40.57;100635.16;5114339;28;20238;-61
2022/05/23 06:26:24;;;;;;;4.97;2.60;;;19.00;51.60;;;21.62;40.62;100622.31;5084062;28;20228;-61
2022/05/23 06:28:51;;;;;;;3.87;2.47;;;19.10;51.50;;;21.69;40.51;100622.94;5031317;28;20655;-62
2022/05/23 06:31:19;;;;;;;8.50;2.57;;;19.10;51.50;;;21.70;40.49;100621.91;5037707;28;20224;-62
2022/05/23 06:33:47;;;;;;;3.37;2.60;;;19.20;51.60;;;21.75;40.43;100627.31;5079031;28;20230;-61
2022/05/23 06:36:14;;;;;;;4.33;2.50;;;19.20;51.20;;;21.80;40.48;100622.03;5034133;28;20253;-60
2022/05/23 06:41:18;;;;;;;4.40;2.60;;;19.30;51.20;;;21.96;39.80;100621.16;5183090;27;20548;-63
2022/05/23 06:43:45;;;;;;;4.87;2.40;;;19.40;51.30;;;22.00;39.87;100623.06;5128971;27;20220;-60
2022/05/23 06:46:14;;;;;;;3.00;2.20;;;19.50;51.10;;;22.07;39.62;100623.69;5126715;27;20663;-62
2022/05/23 06:48:42;;;;;;;4.00;2.27;;;19.60;51.00;;;22.19;39.77;100620.84;5129550;27;20724;-60
2022/05/23 06:51:09;;;;;;;4.77;2.63;;;19.60;51.10;;;22.30;39.53;100617.19;5124505;27;20561;-63
2022/05/23 06:53:40;;;;;;;3.37;2.30;;;19.70;51.90;;;22.41;39.60;100612.75;5057644;28;20233;-63
2022/05/23 06:56:07;;;;;;;2.50;1.87;;;19.80;51.20;;;22.52;39.64;100619.81;5047312;28;20223;-62
2022/05/23 07:01:14;;;;;;;4.27;2.63;;;19.80;50.80;;;22.72;39.46;100612.78;5178441;27;21009;-61
2022/05/23 07:03:45;;;;;;;4.93;2.57;;;20.00;50.50;;;22.72;38.58;100610.09;5161243;27;20686;-61
2022/05/23 07:14:31;;;;;;;3.70;1.90;;;20.30;49.80;;;22.85;38.74;100608.81;4808000;29;20318;-64
2022/05/23 07:19:49;;;;;;;3.30;2.20;;;20.30;49.70;;;22.87;38.99;100610.16;5129963;27;20678;-61
2022/05/23 07:22:16;;;;;;;3.77;2.23;;;20.50;49.80;;;22.87;38.82;100614.72;5078555;28;20322;-60
2022/05/23 07:24:44;;;;;;;5.83;2.50;;;20.50;49.70;;;22.92;38.78;100603.25;5071169;28;20838;-61
2022/05/23 07:27:12;;;;;;;6.87;2.30;;;20.50;49.50;;;22.94;39.13;100604.56;5073420;28;20288;-61
2022/05/23 07:29:40;;;;;;;2.77;2.57;;;20.50;49.70;;;23.00;38.86;100602.72;5021755;28;20291;-62
2022/05/23 07:32:11;;;;;;;4.37;2.70;;;20.60;49.60;;;23.07;38.79;100589.88;4951249;28;20740;-61
2022/05/23 07:34:39;;;;;;;3.40;2.20;;;20.70;49.50;;;23.22;38.36;100598.03;4870929;29;20701;-61
2022/05/23 07:37:06;;;;;;;4.20;2.23;;;20.80;49.50;;;23.34;38.14;100590.56;4806083;29;20216;-60
2022/05/23 07:42:10;;;;;;;2.20;1.80;;;20.80;48.90;;;23.55;37.91;100578.88;5141029;27;20556;-62
2022/05/23 07:44:37;;;;;;;4.90;2.20;;;21.00;48.80;;;23.68;37.73;100585.63;5096330;27;20271;-63
2022/05/23 07:47:06;;;;;;;6.97;2.53;;;21.10;48.80;;;23.74;37.26;100580.00;5090899;28;20217;-64
2022/05/23 07:49:33;;;;;;;4.70;2.67;;;21.10;48.20;;;23.76;37.32;100577.84;5093869;28;20692;-61
2022/05/23 07:52:02;;;;;;;3.40;2.67;;;21.30;48.30;;;23.88;37.17;100575.72;5037486;28;20226;-59
2022/05/23 08:04:36;;;;;;;3.10;2.30;;;21.60;48.30;;;24.78;36.21;100568.78;5131118;27;20542;-61
2022/05/23 08:07:04;;;;;;;5.27;3.97;;;21.80;47.50;;;25.64;34.92;100555.03;5100590;28;20513;-62
2022/05/23 08:09:31;;;;;;;4.57;2.10;;;22.10;47.20;;;26.22;32.90;100551.41;5110916;27;20657;-62
2022/05/23 08:11:58;;;;;;;5.30;2.50;;;22.50;45.70;;;26.81;32.61;100537.69;5090419;28;20196;-62
2022/05/23 08:14:25;;;;;;;2.17;1.97;;;22.90;44.70;;;27.47;31.30;100537.72;5042212;28;20290;-61
2022/05/23 08:16:52;;;;;;;7.43;2.87;;;23.40;44.20;;;28.22;30.66;100532.28;4986349;28;20228;-62
2022/05/23 08:19:19;;;;;;;5.67;2.43;;;23.90;43.30;;;28.65;29.85;100533.69;4820582;29;22289;-61
2022/05/23 08:21:46;;;;;;;3.63;2.43;;;24.30;41.60;;;29.25;29.59;100520.88;4591775;30;20237;-62
2022/05/23 08:26:53;;;;;;;6.40;2.87;;;24.90;41.80;;;30.18;27.65;100528.25;5130551;27;20586;-60
2022/05/23 08:29:20;;;;;;;5.27;2.70;;;25.70;38.40;;;30.48;26.94;100522.06;5092312;28;20860;-61
2022/05/23 08:31:48;;;;;;;4.90;2.70;;;26.10;37.70;;;31.15;26.16;100530.84;5093943;28;20195;-63
2022/05/23 08:34:16;;;;;;;4.27;2.27;;;26.50;37.00;;;31.35;25.47;100529.44;5083783;28;20315;-63
2022/05/23 08:36:43;;;;;;;3.23;2.33;;;26.80;35.80;;;31.80;25.55;100519.91;5023432;28;20242;-61
2022/05/23 08:39:10;;;;;;;3.67;2.30;;;27.20;35.10;;;32.38;24.80;100529.47;4997557;28;20199;-63
2022/05/23 08:41:42;;;;;;;4.23;2.70;;;27.60;34.70;;;32.87;24.15;100517.91;4884713;28;20212;-62
2022/05/23 08:47:02;;;;;;;7.70;2.27;;;28.00;33.80;;;33.72;22.64;100523.97;5144985;27;20558;-63
2022/05/23 08:49:45;;;;;;;3.37;1.90;;;28.80;31.70;;;33.73;22.33;100520.13;5098030;27;20203;-60
2022/05/23 08:52:24;;;;;;;5.30;2.70;;;29.00;30.90;;;33.82;22.34;100524.38;5070976;28;20204;-60
2022/05/23 08:55:01;;;;;;;2.03;1.80;;;29.20;30.50;;;34.02;21.69;100526.28;5036660;28;20243;-60
2022/05/23 08:57:37;;;;;;;4.87;2.77;;;29.30;29.80;;;34.04;21.62;100515.84;4972415;28;20223;-60
2022/05/23 09:00:09;;;;;;;3.30;2.17;;;29.40;29.60;;;34.16;21.87;100517.03;4815029;29;20659;-62
2022/05/23 09:05:23;;;;;;;4.03;2.90;;;29.60;30.00;;;34.61;21.10;100504.94;5125240;27;20592;-59
2022/05/23 09:08:16;;;;;;;4.40;3.67;;;29.80;29.50;;;35.09;21.44;100500.66;5061677;28;20219;-60
2022/05/23 09:10:54;;;;;;;5.00;2.77;;;30.20;29.30;;;35.32;20.13;100512.69;5093843;28;20249;-59
2022/05/23 09:13:23;;;;;;;3.20;2.40;;;30.30;28.60;;;35.41;20.29;100505.13;5058079;28;20265;-61
2022/05/23 09:15:59;;;;;;;4.83;2.50;;;30.50;28.40;;;35.47;20.80;100503.72;5022579;28;20234;-66
2022/05/23 09:18:38;;;;;;;3.83;2.90;;;30.60;28.70;;;35.97;20.30;100495.00;4996784;28;20225;-60
2022/05/23 09:21:09;;;;;;;4.83;2.23;;;30.90;28.80;;;36.32;19.78;100493.25;4831708;29;20208;-66
2022/05/23 09:23:36;;;;;;;4.90;2.57;;;31.10;27.90;;;35.78;19.16;100501.16;4548081;31;20251;-64
2022/05/23 09:28:39;;;;;;;2.93;2.60;;;30.90;27.30;;;35.26;20.86;100483.94;5128972;27;20307;-62
2022/05/23 09:31:17;;;;;;;2.50;2.00;;;30.80;28.30;;;35.44;20.53;100476.25;5074700;28;20946;-61
2022/05/23 09:33:51;;;;;;;4.90;2.63;;;30.80;28.40;;;35.22;20.13;100466.59;5056370;28;20622;-60
2022/05/23 09:36:22;;;;;;;5.63;2.50;;;30.60;28.20;;;35.22;20.53;100466.59;5071168;28;20742;-60
2022/05/23 09:38:56;;;;;;;4.87;2.83;;;30.70;28.50;;;35.02;20.61;100470.25;4949842;28;20211;-61
2022/05/23 09:50:11;;;;;;;2.50;2.30;;;30.60;27.50;;;35.78;19.97;100446.34;5073765;28;20688;-61
2022/05/23 09:53:01;;;;;;;2.53;1.87;;;30.80;28.00;;;36.33;19.19;100448.19;5096261;28;20201;-59
2022/05/23 09:55:33;;;;;;;7.03;2.30;;;31.00;27.80;;;36.53;19.56;100440.88;5074017;28;20223;-60
2022/05/23 09:58:02;;;;;;;3.38;2.30;;;31.20;27.80;;;36.55;19.61;100438.56;5063302;28;20320;-61
2022/05/23 10:00:35;;;;;;;4.47;2.88;;;31.30;27.60;;;36.92;18.63;100436.31;4991285;28;20262;-60
2022/05/23 10:05:46;;;;;;;4.30;2.45;;;31.50;27.20;;;37.15;18.39;100426.22;5129069;27;20561;-59
2022/05/23 10:08:30;;;;;;;3.80;2.40;;;31.80;27.00;;;37.39;18.53;100425.19;5085666;28;20195;-59
2022/05/23 10:11:01;;;;;;;2.90;2.53;;;31.90;27.00;;;37.46;18.22;100430.81;5029080;28;20205;-59
2022/05/23 10:13:32;;;;;;;3.25;2.60;;;32.00;26.80;;;37.04;18.64;100415.00;5057190;28;20280;-59
2022/05/23 10:16:09;;;;;;;5.88;2.50;;;31.90;26.90;;;36.89;19.29;100412.28;5005341;28;20393;-58
2022/05/23 10:18:47;;;;;;;7.97;3.33;;;31.90;27.00;;;36.94;19.27;100410.09;4903152;28;20256;-59
2022/05/23 10:21:27;;;;;;;2.35;2.05;;;31.90;27.10;;;36.93;18.86;100403.00;4778083;29;20663;-60
2022/05/23 10:24:09;;;;;;;4.35;2.78;;;31.90;27.30;;;37.31;18.55;100389.28;4482313;31;20265;-60
2022/05/23 10:28:38;;;;;;;3.72;2.90;;;31.90;27.00;;;36.95;18.56;100389.72;5138811;27;20551;-57
2022/05/23 10:31:12;;;;;;;4.57;2.58;;;31.70;26.20;;;36.85;18.77;100386.72;5101118;28;20218;-62
2022/05/23 10:33:41;;;;;;;4.10;2.43;;;31.70;26.20;;;36.74;18.69;100381.00;5092370;28;20264;-60
2022/05/23 10:36:17;;;;;;;3.17;2.35;;;31.60;26.60;;;37.16;18.42;100373.69;5010944;28;20245;-60
2022/05/23 10:42:20;;;;;;;2.83;2.50;;;32.00;26.50;;;38.21;17.69;100368.56;4738559;29;20241;-60
2022/05/23 10:45:21;;;;;;;4.03;2.40;;;32.40;26.30;;;37.67;17.03;100360.56;4552115;30;20769;-61
2022/05/23 10:48:31;;;;;;;4.70;2.65;;;32.40;25.40;;;37.01;18.10;100358.09;5123980;27;20544;-60
2022/05/23 10:51:09;;;;;;;2.80;2.50;;;32.10;25.60;;;36.83;18.85;100343.13;5048560;28;20219;-63
2022/05/23 10:53:54;;;;;;;4.70;2.13;;;32.10;26.10;;;36.54;18.83;100330.75;5077043;28;20273;-58
2022/05/23 10:56:55;;;;;;;2.80;2.28;;;32.10;26.50;;;35.62;20.33;100333.16;5059101;28;20320;-58
2022/05/23 10:59:32;;;;;;;3.03;2.53;;;32.00;26.50;;;34.94;20.31;100328.88;4869469;28;20267;-59
2022/05/23 11:02:21;;;;;;;3.03;2.73;;;31.70;26.60;;;34.29;21.15;100324.53;4709200;29;20245;-59
2022/05/23 11:04:48;;;;;;;5.00;2.97;;;31.30;26.80;;;33.76;21.68;100306.34;4439438;31;20259;-60
2022/05/23 11:09:29;;;;;;;3.17;2.33;;;31.00;27.40;;;32.51;22.98;100307.66;5156942;27;20631;-57
2022/05/23 11:12:15;;;;;;;4.80;3.37;;;30.40;28.40;;;31.96;24.49;100297.63;5089368;28;20263;-59
2022/05/23 11:15:04;;;;;;;7.50;5.40;;;29.90;29.00;;;32.16;24.30;100290.69;5021730;28;20225;-59
2022/05/23 11:17:41;;;;;;;4.73;3.30;;;29.60;29.60;;;32.45;23.47;100287.13;4934905;28;20243;-58
2022/05/23 11:20:21;;;;;;;3.63;2.40;;;29.60;29.50;;;32.34;23.22;100285.91;4812289;29;20229;-61
2022/05/23 11:22:57;;;;;;;4.40;2.97;;;29.40;29.40;;;32.12;23.72;100280.78;4632295;30;20307;-59
2022/05/23 11:25:24;;;;;;;4.00;2.40;;;29.30;29.50;;;32.01;24.19;100286.59;4457497;31;20326;-60
2022/05/23 11:35:59;;;;;;;6.20;2.60;;;29.00;30.20;;;31.30;25.06;100273.81;5007531;28;20221;-60
2022/05/23 11:38:29;;;;;;;3.30;2.30;;;28.80;30.30;;;31.11;25.50;100259.75;5038263;28;20202;-59
2022/05/23 11:41:07;;;;;;;5.23;2.53;;;28.80;30.80;;;30.95;25.02;100254.03;5024267;28;20199;-60
2022/05/23 11:43:34;;;;;;;3.87;2.50;;;28.70;30.80;;;30.85;25.94;100250.81;4841508;28;20215;-59
2022/05/23 11:46:09;;;;;;;5.73;3.00;;;28.70;31.00;;;30.83;25.84;100239.44;4752920;29;20279;-61
2022/05/23 11:48:52;;;;;;;3.67;2.83;;;28.60;30.90;;;31.07;26.00;100234.34;4434314;31;20738;-61
2022/05/23 11:53:29;;;;;;;4.00;2.60;;;28.60;31.60;;;31.21;25.54;100243.09;5137779;27;20544;-60
2022/05/23 11:56:05;;;;;;;2.53;2.13;;;28.60;31.20;;;31.14;25.73;100226.47;5102440;28;20569;-60
2022/05/23 11:58:50;;;;;;;6.10;3.50;;;28.70;31.40;;;31.13;25.65;100238.47;5073118;28;20215;-59
2022/05/23 12:01:26;;;;;;;4.73;3.17;;;28.70;31.80;;;30.86;26.00;100234.16;5043483;28;20207;-59
2022/05/23 12:04:23;;;;;;;4.53;3.20;;;28.60;31.20;;;30.52;26.24;100229.56;5014055;28;20711;-59
2022/05/23 12:06:50;;;;;;;7.03;2.83;;;28.50;31.80;;;30.18;26.42;100221.31;4917322;28;20323;-61
2022/05/23 12:09:31;;;;;;;3.53;2.27;;;28.20;31.80;;;29.78;27.09;100222.50;4796032;29;20224;-60
2022/05/23 12:12:27;;;;;;;3.03;2.47;;;28.00;32.30;;;29.57;27.34;100208.69;4745496;29;20242;-60
2022/05/23 12:17:30;;;;;;;4.77;2.70;;;27.80;32.60;;;29.75;27.67;100188.63;5143961;27;20316;-60
2022/05/23 12:19:59;;;;;;;2.60;2.37;;;27.70;33.50;;;29.82;27.46;100182.75;5101809;28;20199;-60
2022/05/23 12:22:33;;;;;;;3.27;2.60;;;27.70;33.10;;;29.93;27.03;100176.69;5102050;28;20231;-60
2022/05/23 12:25:25;;;;;;;6.77;2.60;;;27.80;33.10;;;29.97;27.05;100171.44;5057553;28;20260;-64
2022/05/23 12:28:15;;;;;;;3.30;2.23;;;27.80;32.80;;;29.99;27.19;100161.06;5024630;28;20274;-61
2022/05/23 12:30:59;;;;;;;2.37;2.17;;;27.90;33.10;;;30.08;27.21;100170.03;4971851;28;20588;-59
2022/05/23 12:36:53;;;;;;;3.03;2.20;;;27.90;33.30;;;30.51;26.48;100161.91;5147459;27;20644;-61
2022/05/23 12:39:51;;;;;;;4.60;3.03;;;27.90;33.10;;;31.07;26.06;100142.63;5102209;27;20269;-59
2022/05/23 12:42:35;;;;;;;4.30;2.73;;;28.10;33.20;;;31.83;24.96;100140.69;5086396;28;20264;-58
2022/05/23 12:45:34;;;;;;;4.73;2.73;;;28.30;33.20;;;31.96;25.01;100142.38;5035930;28;20261;-61
2022/05/23 12:48:36;;;;;;;9.83;3.23;;;28.50;32.90;;;31.44;25.89;100136.44;4913741;28;20213;-60
2022/05/23 12:51:26;;;;;;;6.60;2.87;;;28.60;32.50;;;31.20;25.98;100129.97;4829220;29;20309;-57